createdAt,value
2018-08-06T00:00:05.740Z,34.30
2018-08-06T00:02:37.384Z,35.30
2018-08-06T00:05:09.993Z,35.20
2018-08-06T00:07:41.614Z,34.80
2018-08-06T00:10:16.666Z,31.33
2018-08-06T00:12:48.541Z,31.20
2018-08-06T00:15:20.558Z,30.70
2018-08-06T00:17:51.996Z,29.67
2018-08-06T00:20:23.797Z,32.23
2018-08-06T00:22:55.657Z,30.07
2018-08-06T00:25:27.417Z,29.20
2018-08-06T00:27:58.858Z,28.27
2018-08-06T00:30:30.567Z,29.80
2018-08-06T00:33:01.821Z,29.93
2018-08-06T00:35:33.242Z,29.43
2018-08-06T00:38:04.874Z,31.80
2018-08-06T00:40:36.718Z,34.60
2018-08-06T00:43:08.362Z,33.23
2018-08-06T00:45:40.373Z,34.83
2018-08-06T00:48:12.173Z,34.90
2018-08-06T00:50:43.822Z,34.10
2018-08-06T00:53:15.297Z,30.97
2018-08-06T00:55:47.162Z,30.73
2018-08-06T00:58:17.857Z,31.93
2018-08-06T01:00:50.002Z,30.63
2018-08-06T01:03:21.742Z,29.30
2018-08-06T01:05:53.714Z,28.23
2018-08-06T01:08:25.178Z,27.87
2018-08-06T01:10:57.378Z,28.20
2018-08-06T01:13:29.031Z,28.83
2018-08-06T01:16:00.993Z,27.13
2018-08-06T01:18:32.754Z,30.73
2018-08-06T01:21:04.437Z,27.60
2018-08-06T01:23:36.022Z,29.40
2018-08-06T01:26:08.028Z,28.80
2018-08-06T01:28:39.870Z,29.03
2018-08-06T01:31:11.971Z,29.93
2018-08-06T01:33:43.714Z,30.77
2018-08-06T01:36:15.298Z,30.40
2018-08-06T01:38:47.535Z,31.10
2018-08-06T01:41:19.558Z,33.53
2018-08-06T01:43:51.131Z,33.20
2018-08-06T01:46:23.354Z,33.17
2018-08-06T01:48:55.037Z,33.43
2018-08-06T01:51:26.706Z,31.40
2018-08-06T01:53:58.298Z,31.00
2018-08-06T01:56:30.339Z,29.90
2018-08-06T01:59:01.944Z,29.10
2018-08-06T02:01:34.019Z,29.27
2018-08-06T02:04:05.784Z,30.30
2018-08-06T02:06:36.665Z,30.50
2018-08-06T02:09:09.816Z,29.10
2018-08-06T02:11:42.926Z,29.17
2018-08-06T02:14:14.650Z,30.70
2018-08-06T02:16:46.271Z,30.13
2018-08-06T02:19:18.040Z,29.73
2018-08-06T02:21:50.050Z,29.60
2018-08-06T02:24:21.741Z,29.20
2018-08-06T02:26:53.751Z,26.87
2018-08-06T02:29:25.221Z,27.83
2018-08-06T02:31:56.174Z,27.20
2018-08-06T02:34:28.185Z,29.50
2018-08-06T02:37:00.371Z,28.67
2018-08-06T02:39:32.525Z,27.67
2018-08-06T02:42:04.673Z,28.73
2018-08-06T02:44:36.760Z,29.17
2018-08-06T02:47:08.962Z,27.00
2018-08-06T02:49:40.994Z,29.20
2018-08-06T02:52:14.170Z,28.17
2018-08-06T02:54:45.844Z,26.93
2018-08-06T02:57:17.855Z,24.70
2018-08-06T02:59:48.597Z,28.70
2018-08-06T03:02:20.271Z,24.27
2018-08-06T03:04:51.198Z,27.30
2018-08-06T03:07:22.646Z,26.83
2018-08-06T03:09:53.310Z,29.37
2018-08-06T03:12:26.123Z,27.93
2018-08-06T03:14:57.943Z,27.77
2018-08-06T03:17:29.209Z,28.20
2018-08-06T03:20:00.866Z,28.97
2018-08-06T03:22:32.875Z,28.70
2018-08-06T03:25:04.895Z,29.40
2018-08-06T03:27:36.999Z,30.07
2018-08-06T03:30:10.712Z,28.40
2018-08-06T03:32:43.029Z,30.90
2018-08-06T03:35:14.843Z,32.20
2018-08-06T03:37:47.081Z,32.00
2018-08-06T03:40:19.007Z,31.20
2018-08-06T03:42:50.991Z,30.73
2018-08-06T03:45:22.503Z,28.17
2018-08-06T03:47:54.344Z,29.67
2018-08-06T03:50:26.074Z,30.33
2018-08-06T03:52:57.682Z,28.93
2018-08-06T03:55:29.288Z,28.27
2018-08-06T03:58:01.284Z,29.77
2018-08-06T04:00:33.007Z,31.10
2018-08-06T04:03:04.873Z,30.97
2018-08-06T04:05:36.418Z,29.50
2018-08-06T04:08:08.275Z,29.93
2018-08-06T04:10:39.002Z,29.80
2018-08-06T04:13:11.750Z,30.80
2018-08-06T04:15:43.338Z,30.80
2018-08-06T04:18:15.037Z,31.90
2018-08-06T04:20:46.769Z,31.73
2018-08-06T04:23:18.754Z,30.20
2018-08-06T04:25:50.272Z,33.97
2018-08-06T04:28:22.366Z,31.93
2018-08-06T04:30:54.442Z,30.47
2018-08-06T04:33:27.226Z,31.70
2018-08-06T04:35:59.102Z,32.77
2018-08-06T04:38:30.871Z,32.20
2018-08-06T04:41:03.016Z,30.40
2018-08-06T04:43:34.165Z,32.70
2018-08-06T04:46:06.700Z,31.73
2018-08-06T04:48:38.295Z,31.40
2018-08-06T04:51:09.819Z,31.00
2018-08-06T04:53:42.406Z,30.67
2018-08-06T04:56:13.957Z,29.33
2018-08-06T04:58:45.875Z,30.03
2018-08-06T05:01:17.635Z,28.27
2018-08-06T05:03:49.173Z,29.37
2018-08-06T05:06:20.798Z,27.87
2018-08-06T05:08:52.898Z,26.93
2018-08-06T05:11:24.629Z,30.23
2018-08-06T05:13:56.695Z,25.53
2018-08-06T05:16:28.490Z,27.13
2018-08-06T05:19:00.147Z,25.03
2018-08-06T05:21:31.394Z,24.47
2018-08-06T05:24:03.658Z,25.10
2018-08-06T05:26:35.318Z,22.97
2018-08-06T05:29:07.226Z,22.63
2018-08-06T05:31:38.812Z,23.10
2018-08-06T05:34:10.607Z,22.58
2018-08-06T05:36:42.251Z,21.20
2018-08-06T05:39:13.094Z,21.27
2018-08-06T05:41:43.648Z,20.82
2018-08-06T05:44:15.350Z,18.85
2018-08-06T05:46:48.930Z,19.90
2018-08-06T05:49:20.666Z,20.17
2018-08-06T05:51:52.027Z,20.90
2018-08-06T05:54:23.626Z,21.00
2018-08-06T05:56:55.094Z,19.87
2018-08-06T05:59:26.063Z,22.87
2018-08-06T06:01:57.582Z,20.40
2018-08-06T06:04:29.567Z,20.03
2018-08-06T06:07:01.019Z,20.47
2018-08-06T06:09:32.547Z,21.00
2018-08-06T06:12:04.170Z,19.15
2018-08-06T06:14:35.902Z,18.87
2018-08-06T06:17:07.474Z,18.07
2018-08-06T06:19:39.066Z,17.90
2018-08-06T06:22:10.574Z,18.15
2018-08-06T06:24:42.578Z,18.60
2018-08-06T06:27:14.008Z,19.40
2018-08-06T06:29:45.827Z,17.75
2018-08-06T06:32:16.498Z,18.25
2018-08-06T06:34:48.056Z,18.60
2018-08-06T06:37:19.746Z,23.20
2018-08-06T06:39:51.637Z,20.70
2018-08-06T06:42:23.105Z,20.53
2018-08-06T06:44:55.291Z,20.33
2018-08-06T06:47:28.469Z,21.50
2018-08-06T06:50:00.028Z,22.50
2018-08-06T06:52:31.466Z,21.93
2018-08-06T06:55:03.421Z,23.63
2018-08-06T06:57:34.907Z,23.30
2018-08-06T07:00:07.593Z,22.10
2018-08-06T07:02:39.597Z,21.47
2018-08-06T07:05:11.483Z,23.90
2018-08-06T07:07:43.093Z,23.70
2018-08-06T07:10:15.447Z,21.48
2018-08-06T07:12:47.206Z,21.25
2018-08-06T07:15:19.339Z,23.92
2018-08-06T07:17:51.239Z,18.80
2018-08-06T07:20:23.489Z,21.50
2018-08-06T07:22:55.443Z,23.45
2018-08-06T07:25:27.626Z,22.40
2018-08-06T07:27:58.972Z,22.42
2018-08-06T07:30:31.151Z,23.60
2018-08-06T07:33:02.763Z,24.15
2018-08-06T07:35:35.405Z,23.13
2018-08-06T07:38:07.110Z,23.83
2018-08-06T07:40:38.476Z,25.57
2018-08-06T07:43:10.490Z,25.83
2018-08-06T07:45:42.622Z,26.53
2018-08-06T07:48:15.089Z,25.23
2018-08-06T07:50:47.007Z,24.57
2018-08-06T07:53:18.905Z,27.83
2018-08-06T07:55:50.840Z,28.97
2018-08-06T07:58:22.735Z,26.10
2018-08-06T08:00:54.996Z,25.87
2018-08-06T08:03:26.875Z,27.07
2018-08-06T08:05:59.018Z,25.67
2018-08-06T08:08:30.991Z,26.77
2018-08-06T08:11:02.929Z,23.60
2018-08-06T08:13:34.646Z,23.13
2018-08-06T08:16:07.023Z,25.77
2018-08-06T08:18:38.830Z,21.50
2018-08-06T08:21:10.955Z,20.50
2018-08-06T08:23:43.142Z,22.40
2018-08-06T08:26:14.059Z,21.57
2018-08-06T08:28:45.838Z,20.30
2018-08-06T08:31:17.546Z,21.90
2018-08-06T08:33:49.164Z,21.50
2018-08-06T08:36:20.835Z,20.27
2018-08-06T08:38:52.563Z,21.97
2018-08-06T08:41:24.256Z,23.23
2018-08-06T08:43:55.843Z,22.57
2018-08-06T08:46:27.539Z,23.17
2018-08-06T08:48:59.699Z,23.90
2018-08-06T08:51:31.394Z,22.83
2018-08-06T08:54:03.058Z,22.53
2018-08-06T08:56:34.704Z,21.40
2018-08-06T08:59:06.435Z,21.10
2018-08-06T09:01:38.126Z,21.90
2018-08-06T09:04:09.642Z,20.90
2018-08-06T09:06:41.623Z,20.70
2018-08-06T09:09:14.130Z,20.10
2018-08-06T09:11:45.791Z,21.03
2018-08-06T09:14:17.402Z,21.23
2018-08-06T09:16:49.179Z,19.80
2018-08-06T09:19:20.727Z,19.47
2018-08-06T09:21:52.426Z,19.90
2018-08-06T09:24:24.022Z,20.67
2018-08-06T09:26:55.632Z,23.83
2018-08-06T09:29:27.106Z,20.67
2018-08-06T09:31:58.871Z,23.23
2018-08-06T09:34:30.350Z,20.97
2018-08-06T09:37:01.261Z,21.20
2018-08-06T09:39:32.733Z,24.13
2018-08-06T09:42:04.669Z,23.20
2018-08-06T09:44:36.255Z,23.77
2018-08-06T09:47:07.999Z,22.00
2018-08-06T09:49:40.439Z,20.20
2018-08-06T09:52:12.154Z,22.77
2018-08-06T09:54:43.910Z,22.53
2018-08-06T09:57:15.503Z,21.90
2018-08-06T09:59:46.910Z,20.87
2018-08-06T10:02:18.737Z,22.20
2018-08-06T10:04:50.135Z,22.43
2018-08-06T10:07:22.448Z,22.67
2018-08-06T10:09:53.935Z,23.90
2018-08-06T10:12:25.493Z,22.77
2018-08-06T10:14:57.063Z,23.67
2018-08-06T10:17:28.826Z,23.63
2018-08-06T10:20:00.475Z,22.23
2018-08-06T10:22:32.067Z,24.40
2018-08-06T10:25:03.599Z,23.90
2018-08-06T10:27:35.315Z,23.50
2018-08-06T10:30:09.142Z,20.60
2018-08-06T10:32:41.381Z,21.70
2018-08-06T10:35:14.427Z,22.20
2018-08-06T10:37:46.593Z,24.73
2018-08-06T10:40:22.231Z,27.50
2018-08-06T10:42:54.558Z,25.20
2018-08-06T10:45:26.674Z,25.10
2018-08-06T10:47:58.684Z,24.37
2018-08-06T10:50:31.734Z,23.40
2018-08-06T10:53:03.762Z,25.00
2018-08-06T10:55:35.814Z,23.63
2018-08-06T10:58:08.188Z,24.63
2018-08-06T11:00:39.869Z,22.10
2018-08-06T11:03:11.778Z,21.60
2018-08-06T11:05:43.545Z,22.43
2018-08-06T11:08:15.771Z,22.50
2018-08-06T11:10:47.734Z,22.90
2018-08-06T11:13:19.849Z,23.50
2018-08-06T11:15:51.808Z,22.63
2018-08-06T11:18:23.873Z,22.77
2018-08-06T11:20:55.531Z,25.50
2018-08-06T11:23:27.432Z,25.33
2018-08-06T11:25:59.259Z,24.40
2018-08-06T11:28:31.305Z,24.90
2018-08-06T11:31:03.171Z,24.93
2018-08-06T11:33:34.266Z,28.03
2018-08-06T11:36:06.578Z,24.97
2018-08-06T11:38:38.559Z,25.00
2018-08-06T11:41:10.415Z,26.67
2018-08-06T11:43:42.302Z,28.43
2018-08-06T11:46:16.151Z,29.07
2018-08-06T11:48:48.091Z,28.77
2018-08-06T11:51:20.711Z,31.17
2018-08-06T11:53:53.259Z,30.93
2018-08-06T11:56:25.247Z,30.63
2018-08-06T11:58:57.771Z,31.80
2018-08-06T12:01:29.599Z,35.97
2018-08-06T12:04:01.757Z,31.63
2018-08-06T12:06:33.753Z,31.07
2018-08-06T12:09:07.823Z,31.87
2018-08-06T12:11:40.227Z,30.93
2018-08-06T12:14:12.171Z,29.53
2018-08-06T12:16:43.917Z,31.70
2018-08-06T12:19:16.161Z,30.77
2018-08-06T12:21:48.074Z,32.00
2018-08-06T12:24:20.287Z,30.13
2018-08-06T12:26:52.155Z,28.97
2018-08-06T12:29:24.546Z,27.43
2018-08-06T12:31:56.318Z,27.10
2018-08-06T12:34:29.080Z,27.60
2018-08-06T12:37:01.321Z,28.83
2018-08-06T12:39:34.514Z,25.90
2018-08-06T12:42:07.123Z,28.50
2018-08-06T12:44:39.093Z,27.10
2018-08-06T12:47:10.962Z,28.10
2018-08-06T12:49:41.950Z,26.40
2018-08-06T12:52:14.702Z,28.20
2018-08-06T12:54:46.697Z,28.20
2018-08-06T12:57:18.431Z,28.67
2018-08-06T12:59:50.945Z,26.20
2018-08-06T13:02:22.948Z,27.53
2018-08-06T13:04:54.857Z,26.13
2018-08-06T13:07:26.671Z,26.93
2018-08-06T13:09:58.783Z,24.23
2018-08-06T13:12:30.579Z,25.17
2018-08-06T13:15:03.061Z,25.83
2018-08-06T13:17:35.083Z,26.00
2018-08-06T13:20:06.595Z,25.00
2018-08-06T13:22:38.590Z,25.13
2018-08-06T13:25:12.030Z,27.00
2018-08-06T13:27:44.177Z,25.43
2018-08-06T13:30:17.148Z,27.50
2018-08-06T13:32:49.011Z,25.43
2018-08-06T13:35:21.616Z,25.10
2018-08-06T13:37:52.518Z,26.70
2018-08-06T13:40:25.136Z,25.70
2018-08-06T13:42:57.240Z,24.03
2018-08-06T13:45:29.598Z,24.90
2018-08-06T13:48:01.476Z,25.77
2018-08-06T13:50:34.058Z,24.97
2018-08-06T13:53:06.204Z,26.33
2018-08-06T13:55:38.507Z,25.47
2018-08-06T13:58:10.321Z,24.90
2018-08-06T14:00:41.361Z,24.20
2018-08-06T14:03:12.984Z,24.50
2018-08-06T14:05:45.198Z,24.57
2018-08-06T14:08:16.995Z,23.50
2018-08-06T14:10:49.137Z,24.13
2018-08-06T14:13:20.985Z,24.03
2018-08-06T14:15:52.982Z,32.80
2018-08-06T14:18:25.138Z,21.50
2018-08-06T14:20:56.394Z,23.23
2018-08-06T14:23:27.190Z,24.20
2018-08-06T14:25:59.125Z,24.63
2018-08-06T14:28:30.879Z,23.00
2018-08-06T14:31:03.304Z,25.03
2018-08-06T14:33:35.567Z,23.27
2018-08-06T14:36:07.810Z,24.37
2018-08-06T14:38:39.480Z,27.73
2018-08-06T14:41:11.847Z,26.00
2018-08-06T14:43:44.242Z,26.30
2018-08-06T14:46:16.133Z,26.17
2018-08-06T14:48:47.930Z,28.87
2018-08-06T14:51:20.308Z,28.30
2018-08-06T14:53:53.088Z,26.00
2018-08-06T14:56:25.738Z,26.43
2018-08-06T14:58:57.642Z,25.80
2018-08-06T15:01:29.563Z,25.80
2018-08-06T15:04:01.500Z,28.30
2018-08-06T15:06:33.509Z,28.47
2018-08-06T15:09:07.104Z,26.60
2018-08-06T15:11:38.987Z,25.47
2018-08-06T15:14:10.811Z,30.97
2018-08-06T15:16:42.679Z,27.73
2018-08-06T15:19:14.583Z,25.90
2018-08-06T15:21:46.698Z,26.27
2018-08-06T15:24:18.517Z,26.80
2018-08-06T15:26:50.548Z,26.93
2018-08-06T15:29:21.848Z,27.27
2018-08-06T15:31:53.277Z,27.70
2018-08-06T15:34:25.198Z,27.43
2018-08-06T15:36:57.000Z,27.40
2018-08-06T15:39:28.238Z,28.73
2018-08-06T15:41:59.723Z,29.77
2018-08-06T15:44:31.399Z,27.50
2018-08-06T15:47:03.964Z,26.00
2018-08-06T15:49:35.711Z,26.57
2018-08-06T15:52:08.400Z,26.70
2018-08-06T15:54:42.127Z,27.07
2018-08-06T15:57:14.154Z,24.67
2018-08-06T15:59:46.090Z,24.87
2018-08-06T16:02:18.099Z,26.23
2018-08-06T16:04:49.803Z,26.80
2018-08-06T16:07:21.764Z,27.10
2018-08-06T16:09:53.553Z,25.87
2018-08-06T16:12:25.643Z,28.60
2018-08-06T16:14:57.567Z,26.20
2018-08-06T16:17:30.565Z,26.73
2018-08-06T16:20:02.298Z,25.70
2018-08-06T16:22:34.207Z,27.20
2018-08-06T16:25:06.904Z,29.57
2018-08-06T16:27:39.011Z,29.63
2018-08-06T16:30:20.024Z,29.40
2018-08-06T16:32:51.100Z,28.00
2018-08-06T16:35:24.510Z,29.20
2018-08-06T16:37:58.612Z,30.17
2018-08-06T16:40:30.493Z,31.77
2018-08-06T16:43:02.169Z,29.33
2018-08-06T16:45:33.834Z,30.63
2018-08-06T16:48:05.823Z,29.60
2018-08-06T16:50:36.538Z,30.00
2018-08-06T16:53:08.486Z,29.80
2018-08-06T16:55:41.162Z,31.87
2018-08-06T16:58:13.096Z,33.40
2018-08-06T17:00:45.474Z,34.50
2018-08-06T17:03:17.437Z,33.10
2018-08-06T17:05:49.327Z,33.83
2018-08-06T17:08:21.449Z,33.50
2018-08-06T17:10:53.245Z,34.53
2018-08-06T17:13:25.432Z,33.70
2018-08-06T17:15:57.210Z,31.33
2018-08-06T17:18:29.364Z,31.17
2018-08-06T17:21:01.238Z,31.17
2018-08-06T17:23:33.631Z,32.80
2018-08-06T17:26:05.542Z,30.07
2018-08-06T17:28:36.961Z,30.17
2018-08-06T17:31:07.961Z,32.27
2018-08-06T17:33:40.210Z,32.80
2018-08-06T17:36:12.002Z,32.10
2018-08-06T17:38:44.104Z,32.80
2018-08-06T17:41:15.171Z,29.37
2018-08-06T17:43:47.281Z,31.30
2018-08-06T17:46:19.047Z,30.47
2018-08-06T17:48:51.235Z,31.23
2018-08-06T17:51:23.130Z,31.60
2018-08-06T17:53:55.499Z,32.37
2018-08-06T17:56:28.166Z,30.83
2018-08-06T17:59:00.536Z,36.20
2018-08-06T18:01:32.184Z,32.63
2018-08-06T18:04:04.438Z,31.53
2018-08-06T18:06:36.732Z,33.43
2018-08-06T18:09:12.491Z,33.83
2018-08-06T18:11:44.474Z,32.10
2018-08-06T18:14:16.463Z,37.10
2018-08-06T18:16:48.902Z,36.50
2018-08-06T18:19:20.931Z,36.60
2018-08-06T18:21:52.834Z,37.40
2018-08-06T18:24:24.910Z,36.90
2018-08-06T18:26:56.843Z,37.83
2018-08-06T18:29:29.255Z,35.97
2018-08-06T18:32:01.095Z,36.07
2018-08-06T18:34:32.109Z,35.73
2018-08-06T18:37:03.928Z,37.13
2018-08-06T18:39:36.107Z,33.57
2018-08-06T18:42:07.955Z,35.83
2018-08-06T18:44:40.046Z,37.30
2018-08-06T18:47:11.936Z,34.80
2018-08-06T18:49:44.228Z,34.40
2018-08-06T18:52:16.049Z,35.90
2018-08-06T18:54:48.207Z,34.67
2018-08-06T18:57:21.432Z,33.57
2018-08-06T18:59:53.343Z,33.53
2018-08-06T19:02:24.977Z,33.60
2018-08-06T19:04:57.845Z,34.80
2018-08-06T19:07:29.789Z,33.27
2018-08-06T19:10:01.960Z,34.03
2018-08-06T19:12:38.666Z,35.20
2018-08-06T19:15:11.047Z,34.47
2018-08-06T19:17:47.731Z,35.67
2018-08-06T19:20:19.850Z,33.40
2018-08-06T19:22:51.682Z,36.03
2018-08-06T19:25:31.275Z,36.23
2018-08-06T19:28:03.006Z,34.13
2018-08-06T19:30:39.579Z,33.93
2018-08-06T19:33:11.397Z,35.30
2018-08-06T19:35:43.258Z,33.43
2018-08-06T19:38:15.436Z,33.00
2018-08-06T19:40:47.443Z,33.87
2018-08-06T19:43:23.984Z,34.80
2018-08-06T19:45:56.136Z,34.47
2018-08-06T19:48:27.944Z,32.37
2018-08-06T19:51:00.358Z,33.43
2018-08-06T19:53:32.255Z,36.63
2018-08-06T19:56:08.990Z,35.83
2018-08-06T19:58:42.127Z,35.80
2018-08-06T20:01:13.869Z,35.23
2018-08-06T20:03:45.654Z,36.23
2018-08-06T20:06:17.669Z,36.97
2018-08-06T20:08:49.508Z,37.50
2018-08-06T20:11:21.714Z,42.50
2018-08-06T20:13:53.672Z,40.43
2018-08-06T20:16:24.791Z,40.97
2018-08-06T20:18:56.642Z,40.73
2018-08-06T20:21:28.555Z,40.70
2018-08-06T20:24:00.519Z,41.73
2018-08-06T20:26:32.923Z,42.47
2018-08-06T20:29:04.969Z,40.57
2018-08-06T20:31:37.293Z,44.77
2018-08-06T20:34:09.335Z,41.47
2018-08-06T20:36:41.581Z,40.30
2018-08-06T20:39:13.457Z,40.37
2018-08-06T20:41:44.930Z,40.30
2018-08-06T20:44:16.350Z,39.73
2018-08-06T20:46:48.096Z,39.63
2018-08-06T20:49:19.954Z,40.80
2018-08-06T20:51:51.599Z,40.73
2018-08-06T20:54:23.547Z,40.63
2018-08-06T20:56:55.477Z,38.07
2018-08-06T20:59:29.158Z,41.63
2018-08-06T21:02:01.206Z,39.37
2018-08-06T21:04:33.037Z,35.40
2018-08-06T21:07:05.206Z,36.87
2018-08-06T21:09:37.137Z,34.70
2018-08-06T21:12:09.719Z,37.40
2018-08-06T21:14:41.521Z,37.07
2018-08-06T21:17:13.629Z,35.63
2018-08-06T21:19:44.568Z,34.67
2018-08-06T21:22:16.602Z,37.00
2018-08-06T21:24:48.351Z,35.70
2018-08-06T21:27:20.416Z,37.17
2018-08-06T21:29:52.286Z,35.80
2018-08-06T21:32:25.019Z,39.27
2018-08-06T21:34:56.823Z,36.40
2018-08-06T21:37:29.191Z,40.03
2018-08-06T21:40:00.936Z,40.00
2018-08-06T21:42:32.981Z,41.20
2018-08-06T21:45:05.315Z,39.50
2018-08-06T21:47:37.362Z,39.30
2018-08-06T21:50:09.825Z,40.10
2018-08-06T21:52:42.062Z,39.50
2018-08-06T21:55:13.969Z,39.53
2018-08-06T21:57:46.035Z,39.67
2018-08-06T22:00:31.765Z,36.87
2018-08-06T22:03:05.718Z,38.07
2018-08-06T22:05:37.418Z,34.47
2018-08-06T22:08:09.683Z,37.40
2018-08-06T22:10:41.706Z,36.20
2018-08-06T22:13:13.146Z,34.37
2018-08-06T22:15:44.823Z,35.60
2018-08-06T22:18:16.839Z,37.00
2018-08-06T22:20:48.736Z,37.23
2018-08-06T22:23:21.088Z,36.43
2018-08-06T22:25:52.967Z,36.93
2018-08-06T22:28:25.115Z,34.90
2018-08-06T22:30:56.989Z,35.67
2018-08-06T22:33:29.095Z,32.60
2018-08-06T22:36:00.091Z,36.20
2018-08-06T22:38:32.198Z,33.07
2018-08-06T22:41:04.252Z,34.07
2018-08-06T22:43:36.185Z,33.53
2018-08-06T22:46:08.297Z,34.20
2018-08-06T22:48:40.938Z,32.10
2018-08-06T22:51:11.658Z,33.70
2018-08-06T22:53:43.676Z,35.07
2018-08-06T22:56:15.431Z,33.37
2018-08-06T22:58:47.365Z,33.60
2018-08-06T23:01:20.055Z,33.80
2018-08-06T23:03:52.654Z,35.10
2018-08-06T23:06:24.343Z,32.83
2018-08-06T23:08:57.307Z,31.63
2018-08-06T23:11:28.195Z,33.23
2018-08-06T23:14:00.478Z,33.37
2018-08-06T23:16:32.326Z,33.70
2018-08-06T23:19:04.618Z,34.87
2018-08-06T23:21:36.563Z,33.60
2018-08-06T23:24:09.494Z,33.20
2018-08-06T23:26:41.330Z,31.10
2018-08-06T23:29:13.447Z,31.83
2018-08-06T23:31:45.270Z,32.37
2018-08-06T23:34:17.476Z,32.10
2018-08-06T23:36:49.270Z,32.17
2018-08-06T23:39:21.287Z,33.00
2018-08-06T23:41:53.406Z,31.77
2018-08-06T23:44:25.612Z,32.07
2018-08-06T23:46:56.450Z,32.20
2018-08-06T23:49:28.202Z,32.90
2018-08-06T23:52:01.034Z,32.07
2018-08-06T23:54:33.286Z,32.17
2018-08-06T23:57:05.188Z,31.00
2018-08-06T23:59:37.121Z,31.00
